sensor_id;sensor_type;location;lat;lon;timestamp;P1;durP1;ratioP1;P2;durP2;ratioP2
43994;SDS011;51687;52.160;5.298;2023-07-13T00:01:48;10.82;;;2.25;;
43994;SDS011;51687;52.160;5.298;2023-07-13T00:04:16;10.48;;;3.25;;
43994;SDS011;51687;52.160;5.298;2023-07-13T00:09:12;12.90;;;2.73;;
43994;SDS011;51687;52.160;5.298;2023-07-13T00:11:41;15.02;;;2.83;;
43994;SDS011;51687;52.160;5.298;2023-07-13T00:14:08;10.32;;;2.65;;
43994;SDS011;51687;52.160;5.298;2023-07-13T00:16:36;10.95;;;2.58;;
43994;SDS011;51687;52.160;5.298;2023-07-13T00:19:05;8.63;;;2.38;;
43994;SDS011;51687;52.160;5.298;2023-07-13T00:21:32;8.25;;;2.08;;
43994;SDS011;51687;52.160;5.298;2023-07-13T00:23:59;15.13;;;2.78;;
43994;SDS011;51687;52.160;5.298;2023-07-13T00:26:27;8.60;;;2.72;;
43994;SDS011;51687;52.160;5.298;2023-07-13T00:28:54;7.20;;;2.33;;
43994;SDS011;51687;52.160;5.298;2023-07-13T00:31:22;12.75;;;2.35;;
43994;SDS011;51687;52.160;5.298;2023-07-13T00:33:49;12.18;;;2.50;;
43994;SDS011;51687;52.160;5.298;2023-07-13T00:36:16;7.20;;;2.35;;
43994;SDS011;51687;52.160;5.298;2023-07-13T00:38:43;8.63;;;2.35;;
43994;SDS011;51687;52.160;5.298;2023-07-13T00:41:11;10.63;;;2.80;;
43994;SDS011;51687;52.160;5.298;2023-07-13T00:43:38;8.40;;;1.95;;
43994;SDS011;51687;52.160;5.298;2023-07-13T00:46:38;9.30;;;2.13;;
43994;SDS011;51687;52.160;5.298;2023-07-13T00:49:00;9.93;;;2.47;;
43994;SDS011;51687;52.160;5.298;2023-07-13T00:51:32;8.57;;;2.40;;
43994;SDS011;51687;52.160;5.298;2023-07-13T00:54:12;7.93;;;1.83;;
43994;SDS011;51687;52.160;5.298;2023-07-13T00:56:49;8.43;;;2.30;;
43994;SDS011;51687;52.160;5.298;2023-07-13T00:59:18;10.93;;;3.05;;
43994;SDS011;51687;52.160;5.298;2023-07-13T01:01:46;9.32;;;2.25;;
43994;SDS011;51687;52.160;5.298;2023-07-13T01:04:14;10.40;;;1.97;;
43994;SDS011;51687;52.160;5.298;2023-07-13T01:06:41;9.95;;;2.25;;
43994;SDS011;51687;52.160;5.298;2023-07-13T01:09:10;11.13;;;2.13;;
43994;SDS011;51687;52.160;5.298;2023-07-13T01:11:38;6.53;;;1.65;;
43994;SDS011;51687;52.160;5.298;2023-07-13T01:14:06;7.80;;;2.35;;
43994;SDS011;51687;52.160;5.298;2023-07-13T01:16:34;7.75;;;1.98;;
43994;SDS011;51687;52.160;5.298;2023-07-13T01:21:31;6.55;;;1.98;;
43994;SDS011;51687;52.160;5.298;2023-07-13T01:23:59;6.60;;;2.17;;
43994;SDS011;51687;52.160;5.298;2023-07-13T01:26:26;6.93;;;1.58;;
43994;SDS011;51687;52.160;5.298;2023-07-13T01:28:53;5.93;;;1.73;;
43994;SDS011;51687;52.160;5.298;2023-07-13T01:31:22;3.78;;;1.38;;
43994;SDS011;51687;52.160;5.298;2023-07-13T01:33:49;8.57;;;2.13;;
43994;SDS011;51687;52.160;5.298;2023-07-13T01:36:16;10.90;;;2.15;;
43994;SDS011;51687;52.160;5.298;2023-07-13T01:38:43;8.88;;;1.83;;
43994;SDS011;51687;52.160;5.298;2023-07-13T01:41:11;6.97;;;1.93;;
43994;SDS011;51687;52.160;5.298;2023-07-13T01:43:38;10.50;;;2.60;;
43994;SDS011;51687;52.160;5.298;2023-07-13T01:46:05;9.57;;;2.08;;
43994;SDS011;51687;52.160;5.298;2023-07-13T01:48:48;6.57;;;1.80;;
43994;SDS011;51687;52.160;5.298;2023-07-13T01:51:15;5.85;;;1.85;;
43994;SDS011;51687;52.160;5.298;2023-07-13T01:53:42;6.55;;;1.83;;
43994;SDS011;51687;52.160;5.298;2023-07-13T01:56:09;5.78;;;1.92;;
43994;SDS011;51687;52.160;5.298;2023-07-13T01:58:36;13.30;;;2.22;;
43994;SDS011;51687;52.160;5.298;2023-07-13T02:01:02;5.88;;;1.80;;
43994;SDS011;51687;52.160;5.298;2023-07-13T02:03:29;7.65;;;2.03;;
43994;SDS011;51687;52.160;5.298;2023-07-13T02:05:57;9.45;;;2.85;;
43994;SDS011;51687;52.160;5.298;2023-07-13T02:08:23;7.43;;;2.00;;
43994;SDS011;51687;52.160;5.298;2023-07-13T02:10:50;12.07;;;3.50;;
43994;SDS011;51687;52.160;5.298;2023-07-13T02:13:17;6.82;;;2.28;;
43994;SDS011;51687;52.160;5.298;2023-07-13T02:15:44;5.78;;;2.10;;
43994;SDS011;51687;52.160;5.298;2023-07-13T02:18:10;11.82;;;3.22;;
43994;SDS011;51687;52.160;5.298;2023-07-13T02:20:38;7.60;;;2.35;;
43994;SDS011;51687;52.160;5.298;2023-07-13T02:23:05;12.35;;;2.53;;
43994;SDS011;51687;52.160;5.298;2023-07-13T02:25:36;9.55;;;2.20;;
43994;SDS011;51687;52.160;5.298;2023-07-13T02:28:03;6.45;;;2.05;;
43994;SDS011;51687;52.160;5.298;2023-07-13T02:30:30;12.43;;;2.50;;
43994;SDS011;51687;52.160;5.298;2023-07-13T02:32:57;8.82;;;2.72;;
43994;SDS011;51687;52.160;5.298;2023-07-13T02:35:24;11.23;;;2.47;;
43994;SDS011;51687;52.160;5.298;2023-07-13T02:37:51;7.72;;;2.38;;
43994;SDS011;51687;52.160;5.298;2023-07-13T02:40:18;10.38;;;3.08;;
43994;SDS011;51687;52.160;5.298;2023-07-13T02:42:45;10.20;;;2.30;;
43994;SDS011;51687;52.160;5.298;2023-07-13T02:45:11;10.45;;;2.63;;
43994;SDS011;51687;52.160;5.298;2023-07-13T02:47:40;11.50;;;3.00;;
43994;SDS011;51687;52.160;5.298;2023-07-13T02:50:08;9.10;;;2.45;;
43994;SDS011;51687;52.160;5.298;2023-07-13T02:52:35;10.82;;;3.05;;
43994;SDS011;51687;52.160;5.298;2023-07-13T02:55:02;9.13;;;2.67;;
43994;SDS011;51687;52.160;5.298;2023-07-13T02:57:29;10.23;;;2.42;;
43994;SDS011;51687;52.160;5.298;2023-07-13T02:59:59;8.27;;;2.97;;
43994;SDS011;51687;52.160;5.298;2023-07-13T03:02:26;14.63;;;2.97;;
43994;SDS011;51687;52.160;5.298;2023-07-13T03:04:55;10.50;;;2.65;;
43994;SDS011;51687;52.160;5.298;2023-07-13T03:07:22;11.27;;;2.38;;
43994;SDS011;51687;52.160;5.298;2023-07-13T03:09:53;7.15;;;2.00;;
43994;SDS011;51687;52.160;5.298;2023-07-13T03:12:20;9.20;;;3.15;;
43994;SDS011;51687;52.160;5.298;2023-07-13T03:14:47;10.40;;;2.22;;
43994;SDS011;51687;52.160;5.298;2023-07-13T03:17:14;7.28;;;2.65;;
43994;SDS011;51687;52.160;5.298;2023-07-13T03:19:42;12.57;;;3.10;;
43994;SDS011;51687;52.160;5.298;2023-07-13T03:22:10;7.95;;;2.88;;
43994;SDS011;51687;52.160;5.298;2023-07-13T03:24:37;12.43;;;3.15;;
43994;SDS011;51687;52.160;5.298;2023-07-13T03:27:05;8.98;;;2.70;;
43994;SDS011;51687;52.160;5.298;2023-07-13T03:29:32;7.97;;;1.90;;
43994;SDS011;51687;52.160;5.298;2023-07-13T03:32:00;6.90;;;2.25;;
43994;SDS011;51687;52.160;5.298;2023-07-13T03:34:27;8.77;;;2.88;;
43994;SDS011;51687;52.160;5.298;2023-07-13T03:36:54;8.95;;;2.60;;
43994;SDS011;51687;52.160;5.298;2023-07-13T03:39:21;12.98;;;2.58;;
43994;SDS011;51687;52.160;5.298;2023-07-13T03:41:49;11.88;;;3.20;;
43994;SDS011;51687;52.160;5.298;2023-07-13T03:44:16;10.70;;;3.00;;
43994;SDS011;51687;52.160;5.298;2023-07-13T03:46:44;11.80;;;3.03;;
43994;SDS011;51687;52.160;5.298;2023-07-13T03:49:12;8.47;;;2.63;;
43994;SDS011;51687;52.160;5.298;2023-07-13T03:51:39;7.03;;;2.10;;
43994;SDS011;51687;52.160;5.298;2023-07-13T03:54:06;8.18;;;2.42;;
43994;SDS011;51687;52.160;5.298;2023-07-13T03:56:33;11.63;;;2.50;;
43994;SDS011;51687;52.160;5.298;2023-07-13T03:59:01;12.32;;;3.97;;
43994;SDS011;51687;52.160;5.298;2023-07-13T04:01:28;11.83;;;2.87;;
43994;SDS011;51687;52.160;5.298;2023-07-13T04:03:56;9.05;;;2.60;;
43994;SDS011;51687;52.160;5.298;2023-07-13T04:06:27;8.55;;;2.65;;
43994;SDS011;51687;52.160;5.298;2023-07-13T04:08:56;8.20;;;2.22;;
43994;SDS011;51687;52.160;5.298;2023-07-13T04:11:25;9.18;;;2.72;;
43994;SDS011;51687;52.160;5.298;2023-07-13T04:13:54;13.25;;;3.00;;
43994;SDS011;51687;52.160;5.298;2023-07-13T04:16:21;10.48;;;3.40;;
43994;SDS011;51687;52.160;5.298;2023-07-13T04:18:49;9.70;;;4.03;;
43994;SDS011;51687;52.160;5.298;2023-07-13T04:21:16;10.00;;;2.43;;
43994;SDS011;51687;52.160;5.298;2023-07-13T04:23:43;7.63;;;2.58;;
43994;SDS011;51687;52.160;5.298;2023-07-13T04:26:10;8.45;;;2.70;;
43994;SDS011;51687;52.160;5.298;2023-07-13T04:28:38;8.15;;;2.90;;
43994;SDS011;51687;52.160;5.298;2023-07-13T04:31:05;9.68;;;2.67;;
43994;SDS011;51687;52.160;5.298;2023-07-13T04:33:32;8.85;;;3.38;;
43994;SDS011;51687;52.160;5.298;2023-07-13T04:36:00;10.23;;;2.88;;
43994;SDS011;51687;52.160;5.298;2023-07-13T04:38:28;8.73;;;3.45;;
43994;SDS011;51687;52.160;5.298;2023-07-13T04:40:56;12.20;;;3.90;;
43994;SDS011;51687;52.160;5.298;2023-07-13T04:45:51;9.88;;;2.97;;
43994;SDS011;51687;52.160;5.298;2023-07-13T04:48:19;8.15;;;2.78;;
43994;SDS011;51687;52.160;5.298;2023-07-13T04:50:48;9.63;;;3.40;;
43994;SDS011;51687;52.160;5.298;2023-07-13T04:53:21;8.70;;;2.80;;
43994;SDS011;51687;52.160;5.298;2023-07-13T04:55:48;14.65;;;3.80;;
43994;SDS011;51687;52.160;5.298;2023-07-13T04:58:15;12.73;;;3.70;;
43994;SDS011;51687;52.160;5.298;2023-07-13T05:00:42;10.63;;;3.28;;
43994;SDS011;51687;52.160;5.298;2023-07-13T05:03:09;8.98;;;3.42;;
43994;SDS011;51687;52.160;5.298;2023-07-13T05:05:37;13.70;;;3.78;;
43994;SDS011;51687;52.160;5.298;2023-07-13T05:08:04;11.90;;;4.55;;
43994;SDS011;51687;52.160;5.298;2023-07-13T05:10:31;13.02;;;3.70;;
43994;SDS011;51687;52.160;5.298;2023-07-13T05:12:58;12.00;;;3.63;;
43994;SDS011;51687;52.160;5.298;2023-07-13T05:15:26;17.88;;;4.55;;
43994;SDS011;51687;52.160;5.298;2023-07-13T05:17:53;12.05;;;3.85;;
43994;SDS011;51687;52.160;5.298;2023-07-13T05:20:20;11.20;;;4.20;;
43994;SDS011;51687;52.160;5.298;2023-07-13T05:22:48;13.25;;;4.18;;
43994;SDS011;51687;52.160;5.298;2023-07-13T05:25:17;14.02;;;5.13;;
43994;SDS011;51687;52.160;5.298;2023-07-13T05:27:44;17.55;;;4.45;;
43994;SDS011;51687;52.160;5.298;2023-07-13T05:30:12;15.63;;;4.78;;
43994;SDS011;51687;52.160;5.298;2023-07-13T05:32:40;12.77;;;4.15;;
43994;SDS011;51687;52.160;5.298;2023-07-13T05:35:07;12.43;;;4.53;;
43994;SDS011;51687;52.160;5.298;2023-07-13T05:37:37;19.33;;;5.45;;
43994;SDS011;51687;52.160;5.298;2023-07-13T05:40:04;21.55;;;5.68;;
43994;SDS011;51687;52.160;5.298;2023-07-13T05:42:32;17.45;;;5.65;;
43994;SDS011;51687;52.160;5.298;2023-07-13T05:44:59;16.15;;;5.80;;
43994;SDS011;51687;52.160;5.298;2023-07-13T05:47:26;15.13;;;5.03;;
43994;SDS011;51687;52.160;5.298;2023-07-13T05:49:53;16.98;;;6.15;;
43994;SDS011;51687;52.160;5.298;2023-07-13T05:52:21;17.17;;;5.60;;
43994;SDS011;51687;52.160;5.298;2023-07-13T05:54:48;19.35;;;6.57;;
43994;SDS011;51687;52.160;5.298;2023-07-13T05:57:15;13.88;;;5.15;;
43994;SDS011;51687;52.160;5.298;2023-07-13T05:59:42;14.52;;;6.18;;
43994;SDS011;51687;52.160;5.298;2023-07-13T06:02:09;17.75;;;6.30;;
43994;SDS011;51687;52.160;5.298;2023-07-13T06:04:37;10.73;;;5.57;;
43994;SDS011;51687;52.160;5.298;2023-07-13T06:07:04;21.50;;;6.80;;
43994;SDS011;51687;52.160;5.298;2023-07-13T06:09:32;14.75;;;5.38;;
43994;SDS011;51687;52.160;5.298;2023-07-13T06:11:59;18.30;;;6.18;;
43994;SDS011;51687;52.160;5.298;2023-07-13T06:14:26;23.85;;;5.90;;
43994;SDS011;51687;52.160;5.298;2023-07-13T06:16:53;17.92;;;6.30;;
43994;SDS011;51687;52.160;5.298;2023-07-13T06:19:20;14.50;;;5.50;;
43994;SDS011;51687;52.160;5.298;2023-07-13T06:21:47;16.10;;;6.10;;
43994;SDS011;51687;52.160;5.298;2023-07-13T06:24:15;22.02;;;6.47;;
43994;SDS011;51687;52.160;5.298;2023-07-13T06:26:42;16.50;;;5.47;;
43994;SDS011;51687;52.160;5.298;2023-07-13T06:29:09;17.63;;;5.43;;
43994;SDS011;51687;52.160;5.298;2023-07-13T06:31:36;18.67;;;5.60;;
43994;SDS011;51687;52.160;5.298;2023-07-13T06:34:04;12.32;;;4.68;;
43994;SDS011;51687;52.160;5.298;2023-07-13T06:36:31;19.05;;;6.10;;
43994;SDS011;51687;52.160;5.298;2023-07-13T06:38:58;17.30;;;5.18;;
43994;SDS011;51687;52.160;5.298;2023-07-13T06:41:25;16.77;;;5.68;;
43994;SDS011;51687;52.160;5.298;2023-07-13T06:43:52;16.10;;;6.90;;
43994;SDS011;51687;52.160;5.298;2023-07-13T06:46:23;16.48;;;5.93;;
43994;SDS011;51687;52.160;5.298;2023-07-13T06:48:50;15.82;;;5.65;;
43994;SDS011;51687;52.160;5.298;2023-07-13T06:51:17;16.52;;;6.00;;
43994;SDS011;51687;52.160;5.298;2023-07-13T06:53:44;15.50;;;5.78;;
43994;SDS011;51687;52.160;5.298;2023-07-13T06:56:11;20.83;;;6.60;;
43994;SDS011;51687;52.160;5.298;2023-07-13T06:58:39;14.38;;;6.78;;
43994;SDS011;51687;52.160;5.298;2023-07-13T07:01:06;14.95;;;6.93;;
43994;SDS011;51687;52.160;5.298;2023-07-13T07:03:34;23.38;;;8.35;;
43994;SDS011;51687;52.160;5.298;2023-07-13T07:06:02;22.90;;;7.47;;
43994;SDS011;51687;52.160;5.298;2023-07-13T07:08:30;11.20;;;7.45;;
43994;SDS011;51687;52.160;5.298;2023-07-13T07:10:57;13.57;;;6.88;;
43994;SDS011;51687;52.160;5.298;2023-07-13T07:13:24;20.98;;;7.80;;
43994;SDS011;51687;52.160;5.298;2023-07-13T07:15:51;20.55;;;8.32;;
43994;SDS011;51687;52.160;5.298;2023-07-13T07:18:19;19.83;;;8.63;;
43994;SDS011;51687;52.160;5.298;2023-07-13T07:20:46;18.15;;;7.70;;
43994;SDS011;51687;52.160;5.298;2023-07-13T07:23:13;15.68;;;8.07;;
43994;SDS011;51687;52.160;5.298;2023-07-13T07:25:42;16.88;;;8.05;;
43994;SDS011;51687;52.160;5.298;2023-07-13T07:28:09;20.02;;;7.78;;
43994;SDS011;51687;52.160;5.298;2023-07-13T07:30:43;17.85;;;7.43;;
43994;SDS011;51687;52.160;5.298;2023-07-13T07:33:13;12.32;;;6.15;;
43994;SDS011;51687;52.160;5.298;2023-07-13T07:35:41;14.93;;;5.83;;
43994;SDS011;51687;52.160;5.298;2023-07-13T07:38:28;11.57;;;5.57;;
43994;SDS011;51687;52.160;5.298;2023-07-13T07:40:55;15.55;;;6.40;;
43994;SDS011;51687;52.160;5.298;2023-07-13T07:43:25;17.83;;;6.75;;
43994;SDS011;51687;52.160;5.298;2023-07-13T07:45:52;13.35;;;6.30;;
43994;SDS011;51687;52.160;5.298;2023-07-13T07:48:19;16.92;;;7.40;;
43994;SDS011;51687;52.160;5.298;2023-07-13T07:50:46;14.63;;;7.50;;
43994;SDS011;51687;52.160;5.298;2023-07-13T07:53:14;15.07;;;7.55;;
43994;SDS011;51687;52.160;5.298;2023-07-13T07:55:41;15.50;;;6.97;;
43994;SDS011;51687;52.160;5.298;2023-07-13T07:58:11;13.27;;;6.82;;
43994;SDS011;51687;52.160;5.298;2023-07-13T08:01:02;14.93;;;6.40;;
43994;SDS011;51687;52.160;5.298;2023-07-13T08:03:33;15.65;;;7.18;;
43994;SDS011;51687;52.160;5.298;2023-07-13T08:06:03;11.07;;;6.13;;
43994;SDS011;51687;52.160;5.298;2023-07-13T08:08:34;11.75;;;6.07;;
43994;SDS011;51687;52.160;5.298;2023-07-13T08:11:09;12.43;;;5.68;;
43994;SDS011;51687;52.160;5.298;2023-07-13T08:13:40;17.17;;;6.47;;
43994;SDS011;51687;52.160;5.298;2023-07-13T08:16:08;8.88;;;5.22;;
43994;SDS011;51687;52.160;5.298;2023-07-13T08:18:36;11.23;;;5.28;;
43994;SDS011;51687;52.160;5.298;2023-07-13T08:21:04;9.90;;;5.28;;
43994;SDS011;51687;52.160;5.298;2023-07-13T08:23:31;15.27;;;5.80;;
43994;SDS011;51687;52.160;5.298;2023-07-13T08:25:59;17.00;;;6.00;;
43994;SDS011;51687;52.160;5.298;2023-07-13T08:28:27;13.40;;;5.78;;
43994;SDS011;51687;52.160;5.298;2023-07-13T08:30:55;12.60;;;5.07;;
43994;SDS011;51687;52.160;5.298;2023-07-13T08:33:26;8.68;;;4.57;;
43994;SDS011;51687;52.160;5.298;2023-07-13T08:35:54;11.00;;;4.80;;
43994;SDS011;51687;52.160;5.298;2023-07-13T08:38:21;9.63;;;5.05;;
43994;SDS011;51687;52.160;5.298;2023-07-13T08:40:55;9.38;;;4.57;;
43994;SDS011;51687;52.160;5.298;2023-07-13T08:43:28;8.90;;;3.50;;
43994;SDS011;51687;52.160;5.298;2023-07-13T08:45:58;5.43;;;2.78;;
43994;SDS011;51687;52.160;5.298;2023-07-13T08:49:10;7.68;;;2.30;;
43994;SDS011;51687;52.160;5.298;2023-07-13T08:53:46;5.10;;;2.40;;
43994;SDS011;51687;52.160;5.298;2023-07-13T08:56:18;3.42;;;2.10;;
43994;SDS011;51687;52.160;5.298;2023-07-13T08:58:46;4.00;;;1.90;;
43994;SDS011;51687;52.160;5.298;2023-07-13T09:01:18;3.83;;;2.28;;
43994;SDS011;51687;52.160;5.298;2023-07-13T09:04:03;5.00;;;1.98;;
43994;SDS011;51687;52.160;5.298;2023-07-13T09:06:35;4.15;;;2.38;;
43994;SDS011;51687;52.160;5.298;2023-07-13T09:12:31;4.35;;;1.95;;
43994;SDS011;51687;52.160;5.298;2023-07-13T09:15:21;7.03;;;2.05;;
43994;SDS011;51687;52.160;5.298;2023-07-13T09:17:54;2.67;;;1.83;;
43994;SDS011;51687;52.160;5.298;2023-07-13T09:20:30;3.65;;;1.90;;
43994;SDS011;51687;52.160;5.298;2023-07-13T09:23:10;5.75;;;1.80;;
43994;SDS011;51687;52.160;5.298;2023-07-13T09:25:40;4.05;;;2.00;;
43994;SDS011;51687;52.160;5.298;2023-07-13T09:28:21;4.85;;;1.83;;
43994;SDS011;51687;52.160;5.298;2023-07-13T09:33:31;5.00;;;2.03;;
43994;SDS011;51687;52.160;5.298;2023-07-13T09:35:59;5.95;;;2.10;;
43994;SDS011;51687;52.160;5.298;2023-07-13T09:38:27;5.80;;;2.70;;
43994;SDS011;51687;52.160;5.298;2023-07-13T09:46:46;7.90;;;3.33;;
43994;SDS011;51687;52.160;5.298;2023-07-13T09:49:22;5.20;;;2.17;;
43994;SDS011;51687;52.160;5.298;2023-07-13T09:52:01;3.53;;;1.58;;
43994;SDS011;51687;52.160;5.298;2023-07-13T09:54:35;4.13;;;1.67;;
43994;SDS011;51687;52.160;5.298;2023-07-13T09:57:04;2.58;;;1.42;;
43994;SDS011;51687;52.160;5.298;2023-07-13T09:59:40;3.53;;;1.50;;
43994;SDS011;51687;52.160;5.298;2023-07-13T10:02:32;4.38;;;1.75;;
43994;SDS011;51687;52.160;5.298;2023-07-13T10:07:31;4.45;;;2.05;;
43994;SDS011;51687;52.160;5.298;2023-07-13T10:09:59;5.97;;;2.00;;
43994;SDS011;51687;52.160;5.298;2023-07-13T10:12:28;4.68;;;2.50;;
43994;SDS011;51687;52.160;5.298;2023-07-13T10:14:57;5.20;;;2.65;;
43994;SDS011;51687;52.160;5.298;2023-07-13T10:17:46;6.22;;;2.58;;
43994;SDS011;51687;52.160;5.298;2023-07-13T10:20:16;5.85;;;2.35;;
43994;SDS011;51687;52.160;5.298;2023-07-13T10:22:59;4.97;;;2.33;;
43994;SDS011;51687;52.160;5.298;2023-07-13T10:25:31;4.27;;;2.57;;
43994;SDS011;51687;52.160;5.298;2023-07-13T10:28:13;4.63;;;3.03;;
43994;SDS011;51687;52.160;5.298;2023-07-13T10:30:46;8.18;;;2.90;;
43994;SDS011;51687;52.160;5.298;2023-07-13T10:33:14;8.15;;;2.88;;
43994;SDS011;51687;52.160;5.298;2023-07-13T10:35:42;5.78;;;2.08;;
43994;SDS011;51687;52.160;5.298;2023-07-13T10:38:11;6.13;;;3.33;;
43994;SDS011;51687;52.160;5.298;2023-07-13T10:40:47;6.40;;;3.13;;
43994;SDS011;51687;52.160;5.298;2023-07-13T10:43:21;4.78;;;2.65;;
43994;SDS011;51687;52.160;5.298;2023-07-13T10:46:05;6.32;;;3.63;;
43994;SDS011;51687;52.160;5.298;2023-07-13T10:48:37;6.18;;;3.63;;
43994;SDS011;51687;52.160;5.298;2023-07-13T10:51:06;6.43;;;3.15;;
43994;SDS011;51687;52.160;5.298;2023-07-13T10:53:37;4.82;;;3.47;;
43994;SDS011;51687;52.160;5.298;2023-07-13T10:56:14;4.70;;;2.75;;
43994;SDS011;51687;52.160;5.298;2023-07-13T11:04:23;9.23;;;3.08;;
43994;SDS011;51687;52.160;5.298;2023-07-13T11:06:56;7.13;;;3.70;;
43994;SDS011;51687;52.160;5.298;2023-07-13T11:09:36;6.53;;;3.97;;
43994;SDS011;51687;52.160;5.298;2023-07-13T11:12:25;6.95;;;3.78;;
43994;SDS011;51687;52.160;5.298;2023-07-13T11:18:11;4.75;;;3.58;;
43994;SDS011;51687;52.160;5.298;2023-07-13T11:22:42;4.80;;;3.05;;
43994;SDS011;51687;52.160;5.298;2023-07-13T11:28:04;8.38;;;3.78;;
43994;SDS011;51687;52.160;5.298;2023-07-13T11:35:37;9.35;;;3.40;;
43994;SDS011;51687;52.160;5.298;2023-07-13T11:38:23;6.80;;;2.95;;
43994;SDS011;51687;52.160;5.298;2023-07-13T11:40:54;5.95;;;2.92;;
43994;SDS011;51687;52.160;5.298;2023-07-13T11:43:22;6.28;;;3.03;;
43994;SDS011;51687;52.160;5.298;2023-07-13T11:45:52;6.68;;;3.45;;
43994;SDS011;51687;52.160;5.298;2023-07-13T11:48:20;4.68;;;2.58;;
43994;SDS011;51687;52.160;5.298;2023-07-13T11:50:56;5.75;;;2.95;;
43994;SDS011;51687;52.160;5.298;2023-07-13T11:53:30;4.88;;;2.83;;
43994;SDS011;51687;52.160;5.298;2023-07-13T11:56:04;5.78;;;2.90;;
43994;SDS011;51687;52.160;5.298;2023-07-13T11:58:31;9.20;;;2.83;;
43994;SDS011;51687;52.160;5.298;2023-07-13T12:00:59;4.20;;;2.45;;
43994;SDS011;51687;52.160;5.298;2023-07-13T12:03:31;6.60;;;3.08;;
43994;SDS011;51687;52.160;5.298;2023-07-13T12:06:05;5.82;;;3.20;;
43994;SDS011;51687;52.160;5.298;2023-07-13T12:08:39;6.35;;;2.92;;
43994;SDS011;51687;52.160;5.298;2023-07-13T12:11:13;6.07;;;2.67;;
43994;SDS011;51687;52.160;5.298;2023-07-13T12:13:41;4.22;;;2.38;;
43994;SDS011;51687;52.160;5.298;2023-07-13T12:16:14;4.78;;;2.33;;
43994;SDS011;51687;52.160;5.298;2023-07-13T12:18:42;4.70;;;2.30;;
43994;SDS011;51687;52.160;5.298;2023-07-13T12:21:13;5.65;;;2.75;;
43994;SDS011;51687;52.160;5.298;2023-07-13T12:23:42;6.82;;;2.60;;
43994;SDS011;51687;52.160;5.298;2023-07-13T12:26:09;5.05;;;2.80;;
43994;SDS011;51687;52.160;5.298;2023-07-13T12:28:44;10.20;;;2.92;;
43994;SDS011;51687;52.160;5.298;2023-07-13T12:31:22;6.57;;;2.60;;
43994;SDS011;51687;52.160;5.298;2023-07-13T12:33:57;5.70;;;2.35;;
43994;SDS011;51687;52.160;5.298;2023-07-13T12:36:26;6.28;;;2.50;;
43994;SDS011;51687;52.160;5.298;2023-07-13T12:38:56;5.82;;;2.55;;
43994;SDS011;51687;52.160;5.298;2023-07-13T12:43:50;6.65;;;2.33;;
43994;SDS011;51687;52.160;5.298;2023-07-13T12:46:20;6.28;;;2.00;;
43994;SDS011;51687;52.160;5.298;2023-07-13T12:48:49;4.32;;;2.00;;
43994;SDS011;51687;52.160;5.298;2023-07-13T12:51:33;5.40;;;2.17;;
43994;SDS011;51687;52.160;5.298;2023-07-13T12:54:15;3.33;;;2.13;;
43994;SDS011;51687;52.160;5.298;2023-07-13T12:56:43;4.45;;;2.03;;
43994;SDS011;51687;52.160;5.298;2023-07-13T12:59:15;7.27;;;2.63;;
43994;SDS011;51687;52.160;5.298;2023-07-13T13:01:43;4.05;;;2.30;;
43994;SDS011;51687;52.160;5.298;2023-07-13T13:04:11;2.92;;;2.00;;
43994;SDS011;51687;52.160;5.298;2023-07-13T13:06:39;3.28;;;1.85;;
43994;SDS011;51687;52.160;5.298;2023-07-13T13:09:12;5.03;;;2.53;;
43994;SDS011;51687;52.160;5.298;2023-07-13T13:11:40;6.82;;;2.45;;
43994;SDS011;51687;52.160;5.298;2023-07-13T13:14:08;4.60;;;2.13;;
43994;SDS011;51687;52.160;5.298;2023-07-13T13:16:37;4.25;;;2.47;;
43994;SDS011;51687;52.160;5.298;2023-07-13T13:19:13;6.38;;;2.53;;
43994;SDS011;51687;52.160;5.298;2023-07-13T13:21:44;6.43;;;2.30;;
43994;SDS011;51687;52.160;5.298;2023-07-13T13:24:15;5.72;;;2.25;;
43994;SDS011;51687;52.160;5.298;2023-07-13T13:26:44;6.72;;;2.25;;
43994;SDS011;51687;52.160;5.298;2023-07-13T13:29:13;4.65;;;2.35;;
43994;SDS011;51687;52.160;5.298;2023-07-13T13:31:43;6.10;;;2.30;;
43994;SDS011;51687;52.160;5.298;2023-07-13T13:34:14;6.43;;;2.55;;
43994;SDS011;51687;52.160;5.298;2023-07-13T13:36:42;6.18;;;2.47;;
43994;SDS011;51687;52.160;5.298;2023-07-13T13:41:44;2.97;;;1.95;;
43994;SDS011;51687;52.160;5.298;2023-07-13T13:44:12;6.32;;;2.25;;
43994;SDS011;51687;52.160;5.298;2023-07-13T13:46:41;7.60;;;2.20;;
43994;SDS011;51687;52.160;5.298;2023-07-13T13:49:15;11.23;;;3.00;;
43994;SDS011;51687;52.160;5.298;2023-07-13T13:51:44;4.93;;;2.67;;
43994;SDS011;51687;52.160;5.298;2023-07-13T13:54:15;4.13;;;2.42;;
43994;SDS011;51687;52.160;5.298;2023-07-13T13:56:44;7.15;;;2.13;;
43994;SDS011;51687;52.160;5.298;2023-07-13T13:59:12;4.45;;;2.22;;
43994;SDS011;51687;52.160;5.298;2023-07-13T14:01:40;3.08;;;2.25;;
43994;SDS011;51687;52.160;5.298;2023-07-13T14:04:13;3.05;;;1.70;;
43994;SDS011;51687;52.160;5.298;2023-07-13T14:06:43;3.63;;;2.05;;
43994;SDS011;51687;52.160;5.298;2023-07-13T14:09:12;5.10;;;2.38;;
43994;SDS011;51687;52.160;5.298;2023-07-13T14:11:41;3.65;;;2.20;;
43994;SDS011;51687;52.160;5.298;2023-07-13T14:14:14;4.25;;;2.38;;
43994;SDS011;51687;52.160;5.298;2023-07-13T14:16:44;6.90;;;2.17;;
43994;SDS011;51687;52.160;5.298;2023-07-13T14:19:13;4.82;;;2.00;;
43994;SDS011;51687;52.160;5.298;2023-07-13T14:21:41;3.88;;;2.20;;
43994;SDS011;51687;52.160;5.298;2023-07-13T14:24:08;5.77;;;2.67;;
43994;SDS011;51687;52.160;5.298;2023-07-13T14:26:36;4.68;;;2.08;;
43994;SDS011;51687;52.160;5.298;2023-07-13T14:29:05;4.40;;;1.90;;
43994;SDS011;51687;52.160;5.298;2023-07-13T14:31:32;5.65;;;2.20;;
43994;SDS011;51687;52.160;5.298;2023-07-13T14:33:59;3.95;;;1.70;;
43994;SDS011;51687;52.160;5.298;2023-07-13T14:36:30;5.97;;;2.08;;
43994;SDS011;51687;52.160;5.298;2023-07-13T14:38:58;4.57;;;1.90;;
43994;SDS011;51687;52.160;5.298;2023-07-13T14:41:26;4.18;;;2.15;;
43994;SDS011;51687;52.160;5.298;2023-07-13T14:43:53;4.03;;;1.60;;
43994;SDS011;51687;52.160;5.298;2023-07-13T14:48:57;3.67;;;1.60;;
43994;SDS011;51687;52.160;5.298;2023-07-13T14:51:26;5.25;;;1.52;;
43994;SDS011;51687;52.160;5.298;2023-07-13T14:53:53;3.47;;;1.88;;
43994;SDS011;51687;52.160;5.298;2023-07-13T14:56:21;1.95;;;1.42;;
43994;SDS011;51687;52.160;5.298;2023-07-13T14:58:48;3.97;;;2.03;;
43994;SDS011;51687;52.160;5.298;2023-07-13T15:01:15;3.63;;;1.60;;
43994;SDS011;51687;52.160;5.298;2023-07-13T15:03:47;6.13;;;2.08;;
43994;SDS011;51687;52.160;5.298;2023-07-13T15:06:15;3.53;;;2.25;;
43994;SDS011;51687;52.160;5.298;2023-07-13T15:08:43;4.78;;;1.80;;
43994;SDS011;51687;52.160;5.298;2023-07-13T15:11:10;4.10;;;2.05;;
43994;SDS011;51687;52.160;5.298;2023-07-13T15:13:38;3.95;;;2.13;;
43994;SDS011;51687;52.160;5.298;2023-07-13T15:16:16;3.75;;;1.40;;
43994;SDS011;51687;52.160;5.298;2023-07-13T15:18:44;3.47;;;1.92;;
43994;SDS011;51687;52.160;5.298;2023-07-13T15:21:19;3.15;;;1.60;;
43994;SDS011;51687;52.160;5.298;2023-07-13T15:23:46;7.07;;;1.63;;
43994;SDS011;51687;52.160;5.298;2023-07-13T15:26:14;6.45;;;1.80;;
43994;SDS011;51687;52.160;5.298;2023-07-13T15:31:24;2.50;;;1.30;;
43994;SDS011;51687;52.160;5.298;2023-07-13T15:33:53;2.92;;;1.20;;
43994;SDS011;51687;52.160;5.298;2023-07-13T15:36:21;2.92;;;1.40;;
43994;SDS011;51687;52.160;5.298;2023-07-13T15:38:50;3.38;;;1.35;;
43994;SDS011;51687;52.160;5.298;2023-07-13T15:46:13;2.23;;;1.37;;
43994;SDS011;51687;52.160;5.298;2023-07-13T15:48:41;3.47;;;1.30;;
43994;SDS011;51687;52.160;5.298;2023-07-13T15:51:11;3.75;;;1.35;;
43994;SDS011;51687;52.160;5.298;2023-07-13T15:53:38;3.28;;;1.35;;
43994;SDS011;51687;52.160;5.298;2023-07-13T15:56:23;3.15;;;1.50;;